Time;durP1;ratioP1;P1;durP2;ratioP2;P2;SDS_P1;SDS_P2;PMS_P1;PMS_P2;Temp;Humidity;BMP_temperature;BMP_pressure;BME280_temperature;BME280_humidity;BME280_pressure;Samples;Min_cycle;Max_cycle;Signal;HPM_P1;HPM_P2
2022/08/02 00:00:50;;;;;;;;;;;;;;;-142.75;100.00;76651.00;5015564;28;19914;-62
2022/08/02 00:03:15;;;;;;;;;;;;;;;-142.75;100.00;76643.13;5015433;28;19913;-62
2022/08/02 00:05:41;;;;;;;;;;;;;;;-142.75;100.00;76649.03;5015362;28;19941;-61
2022/08/02 00:08:06;;;;;;;;;;;;;;;-142.75;100.00;76639.19;5015272;28;19932;-62
2022/08/02 00:10:32;;;;;;;;;;;;;;;-142.75;100.00;76635.25;5015283;28;19924;-62
2022/08/02 00:12:57;;;;;;;;;;;;;;;-142.75;100.00;76641.16;5015225;28;19913;-62
2022/08/02 00:15:22;;;;;;;;;;;;;;;-142.75;100.00;76643.13;5015298;28;19914;-63
2022/08/02 00:17:47;;;;;;;;;;;;;;;-142.75;100.00;76641.16;5014830;28;19928;-62
2022/08/02 00:20:13;;;;;;;;;;;;;;;-142.75;100.00;76649.03;5015108;28;20383;-62
2022/08/02 00:22:38;;;;;;;;;;;;;;;-142.75;100.00;76639.19;5015057;28;20008;-62
2022/08/02 00:25:03;;;;;;;;;;;;;;;-142.75;100.00;76645.09;5015137;28;19918;-62
2022/08/02 00:27:29;;;;;;;;;;;;;;;-142.75;100.00;76629.34;5014712;28;19917;-62
2022/08/02 00:29:54;;;;;;;;;;;;;;;-142.75;100.00;76629.34;5014981;28;19940;-62
2022/08/02 00:32:20;;;;;;;;;;;;;;;-142.75;100.00;76643.13;5013598;28;19960;-63
2022/08/02 00:34:46;;;;;;;;;;;;;;;-142.75;100.00;76641.16;5014779;28;19956;-62
2022/08/02 00:37:12;;;;;;;;;;;;;;;-142.75;100.00;76660.84;5014652;28;19918;-62
2022/08/02 00:39:37;;;;;;;;;;;;;;;-142.75;100.00;76647.06;5014956;28;19920;-62
2022/08/02 00:42:03;;;;;;;;;;;;;;;-142.75;100.00;76641.16;5014709;28;19914;-62
2022/08/02 00:44:28;;;;;;;;;;;;;;;-142.75;100.00;76676.59;5014504;28;19918;-62
2022/08/02 00:46:54;;;;;;;;;;;;;;;-142.75;100.00;76652.97;5014276;28;19921;-62
2022/08/02 00:49:19;;;;;;;;;;;;;;;-142.75;100.00;76641.16;5014552;28;20429;-62
2022/08/02 00:51:44;;;;;;;;;;;;;;;-142.75;100.00;76633.28;5013398;28;19914;-62
2022/08/02 00:54:09;;;;;;;;;;;;;;;-142.75;100.00;76647.06;5014466;28;19920;-62
2022/08/02 00:56:35;;;;;;;;;;;;;;;-142.75;100.00;76662.81;5014279;28;19913;-61
2022/08/02 00:59:00;;;;;;;;;;;;;;;-142.75;100.00;76652.97;5014429;28;19913;-62
2022/08/02 01:01:38;;;;;;;;;;;;;;;-142.75;100.00;76684.47;5014371;28;19914;-62
2022/08/02 01:04:06;;;;;;;;;;;;;;;-142.75;100.00;76676.59;5014234;28;20302;-62
2022/08/02 01:06:32;;;;;;;;;;;;;;;-142.75;100.00;76688.41;5014028;28;20012;-62
2022/08/02 01:08:58;;;;;;;;;;;;;;;-142.75;100.00;76676.59;5014268;28;19945;-62
2022/08/02 01:11:23;;;;;;;;;;;;;;;-142.75;100.00;76668.72;5014259;28;19968;-64
2022/08/02 01:13:48;;;;;;;;;;;;;;;-142.75;100.00;76674.63;5014088;28;20342;-61
2022/08/02 01:16:17;;;;;;;;;;;;;;;-142.75;100.00;76702.19;5014103;28;19914;-64
2022/08/02 01:18:46;;;;;;;;;;;;;;;-142.75;100.00;76731.72;5013754;28;19920;-63
2022/08/02 01:21:17;;;;;;;;;;;;;;;-142.75;100.00;76729.75;5014073;28;20271;-64
2022/08/02 01:23:54;;;;;;;;;;;;;;;-142.75;100.00;76719.91;5013919;28;19921;-62
2022/08/02 01:26:27;;;;;;;;;;;;;;;-142.75;100.00;76719.91;5013810;28;19924;-64
2022/08/02 01:28:52;;;;;;;;;;;;;;;-142.75;100.00;76747.47;5013723;28;19913;-64
2022/08/02 01:31:24;;;;;;;;;;;;;;;-142.75;100.00;76739.59;5013730;28;20286;-64
2022/08/02 01:34:08;;;;;;;;;;;;;;;-142.75;100.00;76747.47;5013760;28;19919;-62
2022/08/02 01:36:36;;;;;;;;;;;;;;;-142.75;100.00;76759.28;5013403;28;20355;-64
2022/08/02 01:39:04;;;;;;;;;;;;;;;-142.75;100.00;76763.22;5013671;28;19917;-64
2022/08/02 01:41:30;;;;;;;;;;;;;;;-142.75;100.00;76771.09;5013551;28;19913;-64
2022/08/02 01:43:57;;;;;;;;;;;;;;;-142.75;100.00;76763.22;5013429;28;20295;-64
2022/08/02 01:46:23;;;;;;;;;;;;;;;-142.75;100.00;76761.25;5013489;28;19921;-62
2022/08/02 01:48:49;;;;;;;;;;;;;;;-142.75;100.00;76747.47;5013348;28;19913;-64
2022/08/02 01:51:16;;;;;;;;;;;;;;;-142.75;100.00;76757.31;5013487;28;19914;-63
2022/08/02 01:53:42;;;;;;;;;;;;;;;-142.75;100.00;76747.47;5013376;28;19913;-64
2022/08/02 01:56:08;;;;;;;;;;;;;;;-142.75;100.00;76753.38;5013323;28;20063;-62
2022/08/02 01:58:35;;;;;;;;;;;;;;;-142.75;100.00;76739.59;5013098;28;19980;-62
2022/08/02 02:01:00;;;;;;;;;;;;;;;-142.75;100.00;76743.53;5013339;28;19913;-62
2022/08/02 02:03:26;;;;;;;;;;;;;;;-142.75;100.00;76725.81;5013086;28;19919;-62
2022/08/02 02:05:57;;;;;;;;;;;;;;;-142.75;100.00;76733.69;5013199;28;19923;-62
2022/08/02 02:08:24;;;;;;;;;;;;;;;-142.75;100.00;76725.81;5012855;28;19913;-62
2022/08/02 02:10:51;;;;;;;;;;;;;;;-142.75;100.00;76743.53;5013101;28;19914;-62
2022/08/02 02:13:17;;;;;;;;;;;;;;;-142.75;100.00;76765.19;5012986;28;19976;-62
2022/08/02 02:15:44;;;;;;;;;;;;;;;-142.75;100.00;76759.28;5013027;28;19914;-62
2022/08/02 02:18:11;;;;;;;;;;;;;;;-142.75;100.00;76735.66;5012713;28;19914;-62
2022/08/02 02:20:36;;;;;;;;;;;;;;;-142.75;100.00;76735.66;5012938;28;20430;-62
2022/08/02 02:23:02;;;;;;;;;;;;;;;-142.75;100.00;76749.44;5012822;28;19914;-62
2022/08/02 02:25:27;;;;;;;;;;;;;;;-142.75;100.00;76767.16;5012907;28;19914;-62
2022/08/02 02:28:04;;;;;;;;;;;;;;;-142.75;100.00;76747.47;5012444;28;19922;-62
2022/08/02 02:30:30;;;;;;;;;;;;;;;-142.75;100.00;76765.19;5012930;28;19913;-64
2022/08/02 02:32:57;;;;;;;;;;;;;;;-142.75;100.00;76786.84;5012739;28;19913;-62
2022/08/02 02:35:22;;;;;;;;;;;;;;;-142.75;100.00;76759.28;5012751;28;20379;-62
2022/08/02 02:37:49;;;;;;;;;;;;;;;-142.75;100.00;76775.03;5012388;28;19913;-61
2022/08/02 02:40:16;;;;;;;;;;;;;;;-142.75;100.00;76777.00;5012694;28;20367;-62
2022/08/02 02:42:42;;;;;;;;;;;;;;;-142.75;100.00;76767.16;5012488;28;19924;-62
2022/08/02 02:45:09;;;;;;;;;;;;;;;-142.75;100.00;76773.06;5012732;28;19928;-62
2022/08/02 02:47:34;;;;;;;;;;;;;;;-142.75;100.00;76798.66;5012180;28;19964;-63
2022/08/02 02:50:00;;;;;;;;;;;;;;;-142.75;100.00;76771.09;5012607;28;19913;-62
2022/08/02 02:52:25;;;;;;;;;;;;;;;-142.75;100.00;76741.56;5012460;28;19913;-62
2022/08/02 02:54:51;;;;;;;;;;;;;;;-142.75;100.00;76743.53;5012492;28;19937;-62
2022/08/02 02:57:17;;;;;;;;;;;;;;;-142.75;100.00;76729.75;5012223;28;19920;-62
2022/08/02 02:59:42;;;;;;;;;;;;;;;-142.75;100.00;76737.63;5012484;28;19924;-62
2022/08/02 03:02:10;;;;;;;;;;;;;;;-142.75;100.00;76739.59;5011705;28;20212;-62
2022/08/02 03:04:36;;;;;;;;;;;;;;;-142.75;100.00;76737.63;5012421;28;20295;-61
2022/08/02 03:07:02;;;;;;;;;;;;;;;-142.75;100.00;76721.88;5011988;28;19925;-62
2022/08/02 03:09:27;;;;;;;;;;;;;;;-142.75;100.00;76712.03;5012405;28;19920;-62
2022/08/02 03:11:53;;;;;;;;;;;;;;;-142.75;100.00;76719.91;5012368;28;19919;-62
2022/08/02 03:14:19;;;;;;;;;;;;;;;-142.75;100.00;76717.94;5012302;28;19974;-62
2022/08/02 03:16:46;;;;;;;;;;;;;;;-142.75;100.00;76727.78;5016086;28;20522;-62
2022/08/02 03:19:12;;;;;;;;;;;;;;;-142.75;100.00;76735.66;5016303;28;19917;-62
2022/08/02 03:21:38;;;;;;;;;;;;;;;-142.75;100.00;76739.59;5016200;28;19918;-63
2022/08/02 03:24:03;;;;;;;;;;;;;;;-142.75;100.00;76763.22;5016215;28;19914;-64
2022/08/02 03:26:29;;;;;;;;;;;;;;;-142.75;100.00;76749.44;5015991;28;19925;-62
2022/08/02 03:28:54;;;;;;;;;;;;;;;-142.75;100.00;76763.22;5015921;28;19913;-62
2022/08/02 03:31:19;;;;;;;;;;;;;;;-142.75;100.00;76784.88;5016113;28;19913;-62
2022/08/02 03:33:45;;;;;;;;;;;;;;;-142.75;100.00;76767.16;5015966;28;19939;-61
2022/08/02 03:36:11;;;;;;;;;;;;;;;-142.75;100.00;76782.91;5014620;28;19953;-62
2022/08/02 03:38:36;;;;;;;;;;;;;;;-142.75;100.00;76800.63;5015640;28;19920;-61
2022/08/02 03:41:02;;;;;;;;;;;;;;;-142.75;100.00;76824.22;5015961;28;19914;-62
2022/08/02 03:43:27;;;;;;;;;;;;;;;-142.75;100.00;76820.28;5015713;28;20367;-62
2022/08/02 03:45:53;;;;;;;;;;;;;;;-142.75;100.00;76798.66;5015828;28;20004;-61
2022/08/02 03:48:19;;;;;;;;;;;;;;;-142.75;100.00;76782.91;5015463;28;19926;-62
2022/08/02 03:50:45;;;;;;;;;;;;;;;-142.75;100.00;76780.94;5015632;28;19913;-62
2022/08/02 03:53:11;;;;;;;;;;;;;;;-142.75;100.00;76771.09;5015647;28;19960;-62
2022/08/02 03:55:38;;;;;;;;;;;;;;;-142.75;100.00;76773.06;5015619;28;19953;-62
2022/08/02 03:58:03;;;;;;;;;;;;;;;-142.75;100.00;76753.38;5015404;28;20000;-62
2022/08/02 04:00:28;;;;;;;;;;;;;;;-142.75;100.00;76759.28;5015566;28;20375;-62
2022/08/02 04:02:53;;;;;;;;;;;;;;;-142.75;100.00;76751.41;5015447;28;19967;-62
2022/08/02 04:05:19;;;;;;;;;;;;;;;-142.75;100.00;76751.41;5015333;28;19914;-62
2022/08/02 04:07:45;;;;;;;;;;;;;;;-142.75;100.00;76739.59;5015079;28;19917;-62
2022/08/02 04:10:11;;;;;;;;;;;;;;;-142.75;100.00;76751.41;5016455;28;19924;-61
2022/08/02 04:12:36;;;;;;;;;;;;;;;-142.75;100.00;76739.59;5015449;28;20466;-61
2022/08/02 04:15:04;;;;;;;;;;;;;;;-142.75;100.00;76743.53;5015286;28;20307;-62
2022/08/02 04:17:31;;;;;;;;;;;;;;;-142.75;100.00;76733.69;5013677;28;19917;-61
2022/08/02 04:20:05;;;;;;;;;;;;;;;-142.75;100.00;76743.53;5015128;28;19913;-62
2022/08/02 04:22:36;;;;;;;;;;;;;;;-142.75;100.00;76739.59;5015900;28;19913;-62
2022/08/02 04:25:03;;;;;;;;;;;;;;;-142.75;100.00;76747.47;5015079;28;19924;-62
2022/08/02 04:27:30;;;;;;;;;;;;;;;-142.75;100.00;76743.53;5014411;28;19917;-63
2022/08/02 04:29:55;;;;;;;;;;;;;;;-142.75;100.00;76739.59;5015060;28;19913;-65
2022/08/02 04:32:21;;;;;;;;;;;;;;;-142.75;100.00;76747.47;5013584;28;20441;-62
2022/08/02 04:34:46;;;;;;;;;;;;;;;-142.75;100.00;76757.31;5014891;28;19967;-62
2022/08/02 04:37:12;;;;;;;;;;;;;;;-142.75;100.00;76747.47;5014606;28;19971;-62
2022/08/02 04:39:41;;;;;;;;;;;;;;;-142.75;100.00;76743.53;5014888;28;19914;-62
2022/08/02 04:42:06;;;;;;;;;;;;;;;-142.75;100.00;76747.47;5014735;28;19936;-62
2022/08/02 04:44:32;;;;;;;;;;;;;;;-142.75;100.00;76731.72;5014623;28;20414;-62
2022/08/02 04:46:58;;;;;;;;;;;;;;;-142.75;100.00;76727.78;5014264;28;19968;-63
2022/08/02 04:49:24;;;;;;;;;;;;;;;-142.75;100.00;76727.78;5014642;28;19921;-62
2022/08/02 04:51:49;;;;;;;;;;;;;;;-142.75;100.00;76725.81;5014629;28;20322;-62
2022/08/02 04:54:14;;;;;;;;;;;;;;;-142.75;100.00;76704.16;5014495;28;19925;-62
2022/08/02 04:56:39;;;;;;;;;;;;;;;-142.75;100.00;76688.41;5014170;28;19913;-62
2022/08/02 04:59:05;;;;;;;;;;;;;;;-142.75;100.00;76662.81;5014483;28;19913;-61
2022/08/02 05:01:31;;;;;;;;;;;;;;;-142.75;100.00;76651.00;5014338;28;19921;-62
2022/08/02 05:03:56;;;;;;;;;;;;;;;-142.75;100.00;76635.25;5014266;28;20051;-62
2022/08/02 05:06:21;;;;;;;;;;;;;;;-142.75;100.00;76613.59;5013447;28;19932;-63
2022/08/02 05:08:47;;;;;;;;;;;;;;;-142.75;100.00;76611.63;5013663;28;19921;-62
2022/08/02 05:11:12;;;;;;;;;;;;;;;-142.75;100.00;76625.41;5013874;28;19913;-62
2022/08/02 05:13:39;;;;;;;;;;;;;;;-142.75;100.00;76576.19;5014063;28;19936;-61
2022/08/02 05:16:04;;;;;;;;;;;;;;;-142.75;100.00;76566.34;5014032;28;19999;-62
2022/08/02 05:18:29;;;;;;;;;;;;;;;-142.75;100.00;76570.28;5013779;28;19953;-62
2022/08/02 05:20:55;;;;;;;;;;;;;;;-142.75;100.00;76566.34;5014080;28;19995;-62
2022/08/02 05:23:20;;;;;;;;;;;;;;;-142.75;100.00;76560.44;5014141;28;19914;-62
2022/08/02 05:25:45;;;;;;;;;;;;;;;-142.75;100.00;76562.41;5012702;28;20368;-62
2022/08/02 05:28:10;;;;;;;;;;;;;;;-142.75;100.00;76562.41;5013479;28;19928;-62
2022/08/02 05:30:36;;;;;;;;;;;;;;;-142.75;100.00;76530.91;5013802;28;19913;-61
2022/08/02 05:33:01;;;;;;;;;;;;;;;-142.75;100.00;76521.09;5012494;28;19917;-62
2022/08/02 05:35:26;;;;;;;;;;;;;;;-142.75;100.00;76538.78;5013742;28;19914;-62
2022/08/02 05:37:51;;;;;;;;;;;;;;;-142.75;100.00;76538.78;5012808;28;19943;-62
2022/08/02 05:40:17;;;;;;;;;;;;;;;-142.75;100.00;76485.66;5013617;28;19944;-62
2022/08/02 05:42:43;;;;;;;;;;;;;;;-142.75;100.00;76481.72;5013553;28;19968;-61
2022/08/02 05:45:08;;;;;;;;;;;;;;;-142.75;100.00;76489.59;5013490;28;19959;-62
2022/08/02 05:47:33;;;;;;;;;;;;;;;-142.75;100.00;76458.09;5013065;28;19917;-62
2022/08/02 05:49:59;;;;;;;;;;;;;;;-142.75;100.00;76469.91;5036852;22;19990;-64
2022/08/02 05:52:25;;;;;;;;;;;;;;;-142.75;100.00;76483.69;5032652;28;19917;-64
2022/08/02 05:55:02;;;;;;;;;;;;;;;-142.75;100.00;76450.22;5032814;28;19920;-64
2022/08/02 05:58:00;;;;;;;;;;;;;;;-142.75;100.00;76424.63;5015133;28;20004;-63
2022/08/02 06:00:26;;;;;;;;;;;;;;;-142.75;100.00;76426.59;4999429;28;19913;-65
2022/08/02 06:03:03;;;;;;;;;;;;;;;-142.75;100.00;76399.03;5033041;28;20267;-65
2022/08/02 06:05:31;;;;;;;;;;;;;;;-142.75;100.00;76406.91;5015184;28;19914;-65
2022/08/02 06:07:58;;;;;;;;;;;;;;;-142.75;100.00;76401.00;5014781;28;19921;-66
2022/08/02 06:10:25;;;;;;;;;;;;;;;-142.75;100.00;76377.38;5013328;28;19917;-65
2022/08/02 06:12:55;;;;;;;;;;;;;;;-142.75;100.00;76328.19;5032852;28;19913;-65
2022/08/02 06:15:20;;;;;;;;;;;;;;;-142.75;100.00;76306.53;5032539;28;20019;-65
2022/08/02 06:17:46;;;;;;;;;;;;;;;-142.75;100.00;76302.59;5032459;28;19956;-67
2022/08/02 06:20:12;;;;;;;;;;;;;;;-142.75;100.00;76292.75;5032502;28;19996;-65
2022/08/02 06:22:42;;;;;;;;;;;;;;;-142.75;100.00;76253.38;5032686;28;19967;-65
2022/08/02 06:25:07;;;;;;;;;;;;;;;-142.75;100.00;76227.78;5032633;28;20005;-65
2022/08/02 06:27:33;;;;;;;;;;;;;;;-142.75;100.00;76221.88;5032296;28;20019;-65
2022/08/02 06:29:59;;;;;;;;;;;;;;;-142.75;100.00;76188.44;5032455;28;20000;-65
2022/08/02 06:32:25;;;;;;;;;;;;;;;-142.75;100.00;76154.97;5032428;28;19914;-65
2022/08/02 06:34:50;;;;;;;;;;;;;;;-142.75;100.00;76164.81;5032437;28;19982;-66
2022/08/02 06:37:16;;;;;;;;;;;;;;;-142.75;100.00;76151.03;5032133;28;19913;-65
2022/08/02 06:39:46;;;;;;;;;;;;;;;-142.75;100.00;76119.53;5032353;28;19995;-65
2022/08/02 06:42:13;;;;;;;;;;;;;;;-142.75;100.00;76101.81;5032356;28;20440;-66
2022/08/02 06:44:38;;;;;;;;;;;;;;;-142.75;100.00;76101.81;5032396;28;19913;-65
2022/08/02 06:47:04;;;;;;;;;;;;;;;-142.75;100.00;76141.19;5031927;28;20340;-65
2022/08/02 06:49:29;;;;;;;;;;;;;;;-142.75;100.00;76097.88;5032086;28;20008;-65
2022/08/02 06:51:54;;;;;;;;;;;;;;;-142.75;100.00;76093.94;5032216;28;19936;-66
2022/08/02 06:54:20;;;;;;;;;;;;;;;-142.75;100.00;76066.41;5032284;28;20336;-65
2022/08/02 06:56:46;;;;;;;;;;;;;;;-142.75;100.00;76038.84;5031935;28;19913;-65
2022/08/02 06:59:11;;;;;;;;;;;;;;;-142.75;100.00;75987.66;5032168;28;19959;-65
2022/08/02 07:01:37;;;;;;;;;;;;;;;-142.75;100.00;75967.97;5032163;28;19916;-67
2022/08/02 07:04:02;;;;;;;;;;;;;;;-142.75;100.00;75932.56;5032092;28;20003;-65
2022/08/02 07:06:28;;;;;;;;;;;;;;;-142.75;100.00;75920.75;5031971;28;19927;-65
2022/08/02 07:08:53;;;;;;;;;;;;;;;-142.75;100.00;75899.09;5031764;28;19917;-66
2022/08/02 07:11:18;;;;;;;;;;;;;;;-142.75;100.00;75924.69;5032169;28;19914;-65
2022/08/02 07:13:43;;;;;;;;;;;;;;;-142.75;100.00;75883.34;5032067;28;19917;-65
2022/08/02 07:16:08;;;;;;;;;;;;;;;-142.75;100.00;75897.13;5032021;28;20429;-66
2022/08/02 07:18:34;;;;;;;;;;;;;;;-142.75;100.00;75810.53;5031560;28;19917;-66
2022/08/02 07:20:59;;;;;;;;;;;;;;;-142.75;100.00;75769.19;5031926;28;19932;-67
2022/08/02 07:23:25;;;;;;;;;;;;;;;-142.75;100.00;75763.28;5031930;28;19919;-66
2022/08/02 07:25:50;;;;;;;;;;;;;;;-142.75;100.00;75743.63;5031977;28;19913;-67
2022/08/02 07:28:15;;;;;;;;;;;;;;;-142.75;100.00;75790.84;5031519;28;19968;-66
2022/08/02 07:30:41;;;;;;;;;;;;;;;-142.75;100.00;75779.03;5031867;28;19913;-66
2022/08/02 07:33:07;;;;;;;;;;;;;;;-142.75;100.00;75782.97;5031752;28;19913;-65
2022/08/02 07:35:32;;;;;;;;;;;;;;;-142.75;100.00;75759.38;5012667;28;20611;-66
2022/08/02 07:37:57;;;;;;;;;;;;;;;-142.75;100.00;75731.81;5030562;28;20397;-65
2022/08/02 07:40:23;;;;;;;;;;;;;;;-142.75;100.00;75680.63;5013511;28;19917;-66
2022/08/02 07:42:50;;;;;;;;;;;;;;;-142.75;100.00;75712.13;5013160;28;19986;-66
2022/08/02 07:45:16;;;;;;;;;;;;;;;-142.75;100.00;75672.78;5030827;28;19913;-66
2022/08/02 07:47:42;;;;;;;;;;;;;;;-142.75;100.00;75678.66;5030504;28;19917;-66
2022/08/02 07:50:08;;;;;;;;;;;;;;;-142.75;100.00;75664.91;5030349;28;19953;-65
2022/08/02 07:52:34;;;;;;;;;;;;;;;-142.75;100.00;75621.59;5030726;28;20023;-66
2022/08/02 07:55:00;;;;;;;;;;;;;;;-142.75;100.00;75596.00;5030730;28;20455;-65
2022/08/02 07:57:25;;;;;;;;;;;;;;;-142.75;100.00;75617.66;5030449;28;19917;-65
2022/08/02 07:59:50;;;;;;;;;;;;;;;-142.75;100.00;75588.16;5030688;28;20023;-66
2022/08/02 08:02:15;;;;;;;;;;;;;;;-142.75;100.00;75546.81;5015225;28;19917;-63
2022/08/02 08:04:41;;;;;;;;;;;;;;;-142.75;100.00;75548.78;5034084;28;19913;-64
2022/08/02 08:07:08;;;;;;;;;;;;;;;-142.75;100.00;75574.38;5034033;28;19917;-65
2022/08/02 08:09:38;;;;;;;;;;;;;;;-142.75;100.00;75588.16;5034429;28;19960;-66
2022/08/02 08:12:04;;;;;;;;;;;;;;;-142.75;100.00;75582.25;5034435;28;20121;-66
2022/08/02 08:14:29;;;;;;;;;;;;;;;-142.75;100.00;75527.13;5034439;28;19953;-65
2022/08/02 08:16:54;;;;;;;;;;;;;;;-142.75;100.00;75523.19;5034000;28;19913;-66
2022/08/02 08:19:19;;;;;;;;;;;;;;;-142.75;100.00;75499.59;5034138;28;20324;-66
2022/08/02 08:21:44;;;;;;;;;;;;;;;-142.75;100.00;75495.66;5034355;28;19913;-66
2022/08/02 08:24:09;;;;;;;;;;;;;;;-142.75;100.00;75531.06;5034128;28;19913;-66
2022/08/02 08:26:35;;;;;;;;;;;;;;;-142.75;100.00;75542.88;5033795;28;20014;-65
2022/08/02 08:29:00;;;;;;;;;;;;;;;-142.75;100.00;75519.25;5034281;28;19971;-65
2022/08/02 08:31:25;;;;;;;;;;;;;;;-142.75;100.00;75582.25;5033989;28;19913;-65
2022/08/02 08:33:51;;;;;;;;;;;;;;;-142.75;100.00;75544.84;5033890;28;19913;-65
2022/08/02 08:36:16;;;;;;;;;;;;;;;-142.75;100.00;75503.53;5033806;28;19917;-66
2022/08/02 08:38:41;;;;;;;;;;;;;;;-142.75;100.00;75499.59;5016018;28;19976;-65
2022/08/02 08:41:07;;;;;;;;;;;;;;;-142.75;100.00;75509.44;5033836;28;20438;-66
2022/08/02 08:43:32;;;;;;;;;;;;;;;-142.75;100.00;75436.59;5033885;28;19917;-66
2022/08/02 08:45:57;;;;;;;;;;;;;;;-142.75;100.00;75348.06;5033728;28;20016;-65
2022/08/02 08:48:23;;;;;;;;;;;;;;;-142.75;100.00;75357.91;5033134;28;19917;-66
2022/08/02 08:50:48;;;;;;;;;;;;;;;-142.75;93.13;75361.84;5033440;28;19942;-66
2022/08/02 08:53:13;;;;;;;;;;;;;;;-142.75;90.53;75389.38;5033489;28;20004;-66
2022/08/02 08:55:39;;;;;;;;;;;;;;;-142.75;91.01;75373.63;5033697;28;20016;-66
2022/08/02 08:58:04;;;;;;;;;;;;;;;-142.75;89.79;75332.31;5033125;28;19924;-66
2022/08/02 09:00:30;;;;;;;;;;;;;;;-142.75;89.05;75318.53;5033389;28;20466;-66
2022/08/02 09:02:56;;;;;;;;;;;;;;;-142.75;92.60;75361.84;5033268;28;20015;-66
2022/08/02 09:05:21;;;;;;;;;;;;;;;-142.75;88.25;75346.09;5033319;28;20008;-66
2022/08/02 09:07:48;;;;;;;;;;;;;;;-142.75;90.33;75298.84;5033052;28;19960;-66
2022/08/02 09:10:32;;;;;;;;;;;;;;;-142.75;86.98;75289.03;5033167;28;20319;-66
2022/08/02 09:13:09;;;;;;;;;;;;;;;-142.75;88.13;75324.44;5032179;28;19963;-66
2022/08/02 09:15:35;;;;;;;;;;;;;;;-142.75;91.28;75393.31;5033226;28;19924;-66
2022/08/02 09:18:02;;;;;;;;;;;;;;;-142.75;90.20;75383.47;5014886;28;19922;-66
2022/08/02 09:20:27;;;;;;;;;;;;;;;-142.75;92.93;75375.59;5033025;28;20329;-66
2022/08/02 09:23:04;;;;;;;;;;;;;;;-142.75;89.66;75367.72;5032894;28;19923;-66
2022/08/02 09:25:30;;;;;;;;;;;;;;;-142.75;84.34;75391.34;5032982;28;19920;-66
2022/08/02 09:27:55;;;;;;;;;;;;;;;-142.75;90.71;75357.91;5032386;28;20371;-65
2022/08/02 09:30:21;;;;;;;;;;;;;;;-142.75;83.18;75275.25;5033094;28;20007;-66
2022/08/02 09:32:48;;;;;;;;;;;;;;;-142.75;82.60;75229.97;5032613;28;19939;-66
2022/08/02 09:35:29;;;;;;;;;;;;;;;-142.75;80.05;75202.44;5032641;28;19913;-67
2022/08/02 09:38:06;;;;;;;;;;;;;;;-142.75;76.89;75243.75;5032261;28;19979;-64
2022/08/02 09:40:36;;;;;;;;;;;;;;;-142.75;78.17;75310.66;5032675;28;19939;-67
2022/08/02 09:43:01;;;;;;;;;;;;;;;-142.75;75.91;75318.53;5015169;28;20322;-66
2022/08/02 09:45:31;;;;;;;;;;;;;;;-142.75;77.11;75338.22;5032540;28;19913;-66
2022/08/02 09:47:56;;;;;;;;;;;;;;;-142.75;75.46;75300.81;5031718;28;20432;-63
2022/08/02 09:50:21;;;;;;;;;;;;;;;-142.75;76.39;75279.19;5032338;28;19921;-63
2022/08/02 09:52:47;;;;;;;;;;;;;;;-142.75;77.55;75336.25;5032305;28;19917;-63
2022/08/02 09:55:12;;;;;;;;;;;;;;;-142.75;78.22;75385.44;5032500;28;20417;-63
2022/08/02 09:57:37;;;;;;;;;;;;;;;-142.75;78.71;75346.09;5032218;28;20557;-66
2022/08/02 10:00:05;;;;;;;;;;;;;;;-142.75;76.90;75385.44;5032158;28;19913;-68
2022/08/02 10:02:30;;;;;;;;;;;;;;;-142.75;79.19;75438.56;5032181;28;20008;-67
2022/08/02 10:04:56;;;;;;;;;;;;;;;-142.75;80.81;75389.38;5031858;28;20012;-67
2022/08/02 10:07:21;;;;;;;;;;;;;;;-142.75;79.33;75361.84;5013858;28;19947;-68
2022/08/02 10:09:47;;;;;;;;;;;;;;;-142.75;73.36;75265.41;5032180;28;19921;-66
2022/08/02 10:12:13;;;;;;;;;;;;;;;-142.75;75.72;75247.69;5032129;28;19972;-67
2022/08/02 10:14:38;;;;;;;;;;;;;;;-142.75;72.86;75202.44;5032250;28;19913;-66
2022/08/02 10:17:05;;;;;;;;;;;;;;;-142.75;70.82;75176.84;5032587;28;19917;-67
2022/08/02 10:19:30;;;;;;;;;;;;;;;-142.75;72.82;75107.97;5032817;28;19913;-66
2022/08/02 10:21:57;;;;;;;;;;;;;;;-142.75;66.14;75086.34;5032768;28;19920;-64
2022/08/02 10:24:25;;;;;;;;;;;;;;;-142.75;66.10;75123.72;5032538;28;20386;-68
2022/08/02 10:26:51;;;;;;;;;;;;;;;-142.75;65.91;75109.94;5032474;28;20186;-66
2022/08/02 10:29:17;;;;;;;;;;;;;;;-142.75;67.95;75104.03;5032295;28;19917;-66
2022/08/02 10:31:48;;;;;;;;;;;;;;;-142.75;67.02;75098.16;5032571;28;20000;-67
2022/08/02 10:34:15;;;;;;;;;;;;;;;-142.75;66.65;75068.63;5032501;28;19921;-68
2022/08/02 10:36:41;;;;;;;;;;;;;;;-142.75;67.58;75090.28;5032048;28;19917;-67
2022/08/02 10:39:06;;;;;;;;;;;;;;;-142.75;67.25;75106.00;5032488;28;19913;-67
2022/08/02 10:41:51;;;;;;;;;;;;;;;-142.75;67.59;75023.38;5032578;28;19919;-67
2022/08/02 10:44:25;;;;;;;;;;;;;;;-142.75;65.60;75041.09;5032335;28;20329;-67
2022/08/02 10:46:50;;;;;;;;;;;;;;;-142.75;67.29;75121.75;5031942;28;19917;-67
2022/08/02 10:49:21;;;;;;;;;;;;;;;-142.75;65.37;75076.50;5031415;28;19932;-69
2022/08/02 10:51:57;;;;;;;;;;;;;;;-142.75;65.36;75133.56;5032447;28;19960;-67
2022/08/02 10:54:24;;;;;;;;;;;;;;;-142.75;66.51;75178.81;5032454;28;20051;-69
2022/08/02 10:56:50;;;;;;;;;;;;;;;-142.75;65.54;75153.25;5032062;28;19920;-67
2022/08/02 10:59:24;;;;;;;;;;;;;;;-142.75;67.44;75100.09;5032171;28;19913;-67
2022/08/02 11:01:49;;;;;;;;;;;;;;;-142.75;64.69;75019.44;5032275;28;19952;-68
2022/08/02 11:04:14;;;;;;;;;;;;;;;-142.75;64.78;74993.84;5032180;28;19913;-66
2022/08/02 11:07:00;;;;;;;;;;;;;;;-142.75;63.93;74956.47;5031890;28;19972;-67
2022/08/02 11:09:28;;;;;;;;;;;;;;;-142.75;63.71;74999.75;5019954;28;20802;-67
2022/08/02 11:12:02;;;;;;;;;;;;;;;-142.75;64.91;75023.38;5032116;28;20000;-67
2022/08/02 11:14:27;;;;;;;;;;;;;;;-142.75;66.00;75011.56;5032276;28;20417;-67
2022/08/02 11:16:55;;;;;;;;;;;;;;;-142.75;66.27;74982.03;5031687;28;19913;-67
2022/08/02 11:19:21;;;;;;;;;;;;;;;-142.75;67.44;74946.63;5031989;28;19919;-67
2022/08/02 11:22:05;;;;;;;;;;;;;;;-142.75;63.29;74948.59;5014418;28;19999;-67
2022/08/02 11:24:31;;;;;;;;;;;;;;;-142.75;67.59;75076.50;5032012;28;19913;-68
2022/08/02 11:26:58;;;;;;;;;;;;;;;-142.75;67.86;75082.41;5031663;28;19965;-67
2022/08/02 11:29:35;;;;;;;;;;;;;;;-142.75;70.58;75060.75;5032013;28;20401;-67
2022/08/02 11:32:00;;;;;;;;;;;;;;;-142.75;68.93;75052.88;5014195;28;20385;-67
2022/08/02 11:34:26;;;;;;;;;;;;;;;-142.75;67.87;75062.72;5031997;28;19913;-66
2022/08/02 11:36:51;;;;;;;;;;;;;;;-142.75;68.97;75106.00;5034201;28;20004;-68
2022/08/02 11:39:18;;;;;;;;;;;;;;;-142.75;70.66;75070.59;5035834;28;19917;-67
2022/08/02 11:41:56;;;;;;;;;;;;;;;-142.75;68.63;75045.00;5035831;28;19928;-69
2022/08/02 11:44:22;;;;;;;;;;;;;;;-142.75;69.22;75062.72;5035721;28;19913;-67
2022/08/02 11:46:54;;;;;;;;;;;;;;;-142.75;69.47;75045.00;5035543;28;19940;-69
2022/08/02 11:51:59;;;;;;;;;;;;;;;-142.75;70.83;75102.06;5055885;22;19971;-65
2022/08/02 11:54:26;;;;;;;;;;;;;;;-142.75;70.61;75050.91;5034948;28;19917;-64
2022/08/02 11:56:51;;;;;;;;;;;;;;;-142.75;70.22;74993.84;5035216;28;19921;-64
2022/08/02 11:59:16;;;;;;;;;;;;;;;-142.75;66.18;74976.16;5035443;28;19959;-65
2022/08/02 12:01:42;;;;;;;;;;;;;;;-142.75;65.20;74869.88;5035369;28;19913;-64
2022/08/02 12:04:07;;;;;;;;;;;;;;;-142.75;63.12;74810.88;5035286;28;20406;-65
2022/08/02 12:06:33;;;;;;;;;;;;;;;-142.75;60.69;74814.78;5035043;28;19913;-64
2022/08/02 12:09:02;;;;;;;;;;;;;;;-142.75;60.94;74883.66;5035496;28;20309;-65
2022/08/02 12:11:27;;;;;;;;;;;;;;;-142.75;59.49;74850.22;5035282;28;19920;-65
2022/08/02 12:13:52;;;;;;;;;;;;;;;-142.75;60.99;74903.34;5017628;28;20382;-65
2022/08/02 12:19:17;;;;;;;;;;;;;;;-142.75;58.88;74877.75;5035231;28;20597;-65
2022/08/02 12:21:43;;;;;;;;;;;;;;;-142.75;58.99;74812.81;5035078;28;20012;-65
2022/08/02 12:24:09;;;;;;;;;;;;;;;-142.75;56.60;74806.94;5035244;28;20022;-65